Pinon Hills, California
Current Conditions -  °F | °C
As of 4:55 AM on Wednesday 22 Oct 2014 (Local Time) from KGXA Reporting Station
Clear Clear  
Wind Chill: 48°   Ceiling: Unl
Heat Index: 48°   Visibility: 10mi
Dew Point: 35°   Wind: 3mph
Humidity: 59%   Direction: 170°S
Pressure: 29.98"   Gusts: NA
Location:  34.43°N, 117.65°W
Report Text: KGXA 221155Z AUTO 17003KT 10SM CLR 09/01 A2998 RMK AO2 SLP137 T00900014 10150 20075 50001 TSNO $
Loading
Personal Weather Stations






























Interactive Weather Map
Tropical Storm Tracking
New forecast layout! Learn more

10-Day Weather Forecast

Advertisements
Track Severe Weather on mobile